Time;durP1;ratioP1;P1;durP2;ratioP2;P2;SDS_P1;SDS_P2;PMS_P1;PMS_P2;Temp;Humidity;BMP_temperature;BMP_pressure;BME280_temperature;BME280_humidity;BME280_pressure;Samples;Min_cycle;Max_cycle;Signal;HPM_P1;HPM_P2
2023/10/15 00:00:43;;;;;;;7.70;1.20;;;5.20;99.90;;;;;;4997982;28;20397;-60
2023/10/15 00:03:11;;;;;;;5.45;1.15;;;5.30;99.90;;;;;;4992356;28;20053;-60
2023/10/15 00:05:39;;;;;;;5.05;1.67;;;5.30;99.90;;;;;;5007832;28;20050;-61
2023/10/15 00:08:06;;;;;;;4.40;1.02;;;5.40;99.90;;;;;;4997651;28;20035;-60
2023/10/15 00:10:37;;;;;;;7.43;0.80;;;5.40;99.90;;;;;;5007081;28;20046;-61
2023/10/15 00:13:05;;;;;;;7.75;1.63;;;5.40;99.90;;;;;;5007963;28;20053;-61
2023/10/15 00:15:32;;;;;;;8.23;0.95;;;5.40;99.90;;;;;;4999091;28;20057;-60
2023/10/15 00:18:02;;;;;;;7.68;2.00;;;5.30;99.90;;;;;;4998631;28;20053;-61
2023/10/15 00:20:40;;;;;;;4.60;0.95;;;5.40;99.90;;;;;;5007858;28;20084;-60
2023/10/15 00:23:13;;;;;;;8.68;1.35;;;5.40;99.90;;;;;;5000049;28;20493;-58
2023/10/15 00:25:47;;;;;;;10.00;1.42;;;5.40;99.90;;;;;;5003044;28;20050;-57
2023/10/15 00:28:16;;;;;;;5.38;0.90;;;5.40;99.90;;;;;;5000361;28;20478;-59
2023/10/15 00:30:44;;;;;;;10.27;1.17;;;5.50;99.90;;;;;;4997402;28;20382;-59
2023/10/15 00:33:12;;;;;;;8.13;1.15;;;5.50;99.90;;;;;;5006302;28;20584;-58
2023/10/15 00:35:53;;;;;;;7.95;0.82;;;5.60;99.90;;;;;;4991554;28;20058;-58
2023/10/15 00:38:24;;;;;;;6.53;1.23;;;5.60;99.90;;;;;;4997094;28;20046;-58
2023/10/15 00:41:07;;;;;;;8.98;1.15;;;5.60;99.90;;;;;;4990917;28;20039;-58
2023/10/15 00:43:36;;;;;;;7.88;0.95;;;5.60;99.90;;;;;;5000864;28;20513;-59
2023/10/15 00:46:13;;;;;;;6.78;1.15;;;5.60;99.90;;;;;;4992936;28;20065;-58
2023/10/15 00:48:41;;;;;;;14.23;1.23;;;5.60;99.90;;;;;;4981894;28;20053;-58
2023/10/15 00:51:13;;;;;;;10.07;1.00;;;5.60;99.90;;;;;;4999122;28;20053;-59
2023/10/15 00:53:49;;;;;;;6.47;0.65;;;5.60;99.90;;;;;;5003434;28;20050;-58
2023/10/15 00:56:26;;;;;;;14.75;1.15;;;5.60;99.90;;;;;;5004113;28;20030;-60
2023/10/15 00:59:08;;;;;;;5.72;1.00;;;5.60;99.90;;;;;;5006542;28;20490;-60
2023/10/15 01:01:42;;;;;;;6.10;1.27;;;5.50;99.90;;;;;;5001103;28;20042;-59
2023/10/15 01:04:11;;;;;;;6.55;0.90;;;5.50;99.90;;;;;;4995216;28;20049;-60
2023/10/15 01:06:44;;;;;;;3.85;1.10;;;5.40;99.90;;;;;;5002398;28;20413;-61
2023/10/15 01:11:51;;;;;;;9.55;1.05;;;5.30;99.90;;;;;;5007751;28;20054;-60
2023/10/15 01:14:25;;;;;;;14.15;2.25;;;5.20;99.90;;;;;;5004108;28;20057;-57
2023/10/15 01:16:53;;;;;;;5.13;0.80;;;5.20;99.90;;;;;;4999257;28;20045;-59
2023/10/15 01:19:31;;;;;;;6.78;0.77;;;5.10;99.90;;;;;;5007550;28;20049;-59
2023/10/15 01:22:03;;;;;;;7.78;0.70;;;5.00;99.90;;;;;;4991478;28;20051;-60
2023/10/15 01:24:36;;;;;;;6.68;0.70;;;4.90;99.90;;;;;;5007107;28;20049;-60
2023/10/15 01:27:11;;;;;;;13.00;1.27;;;4.90;99.90;;;;;;4994822;28;20039;-62
2023/10/15 01:29:38;;;;;;;9.13;0.95;;;4.90;99.90;;;;;;5000771;28;20069;-61
2023/10/15 01:32:10;;;;;;;5.18;1.00;;;4.90;99.90;;;;;;4996974;28;20045;-61
2023/10/15 01:34:44;;;;;;;10.50;2.85;;;5.00;99.90;;;;;;4997567;28;20042;-61
2023/10/15 01:37:24;;;;;;;4.43;0.73;;;5.00;99.90;;;;;;5003851;28;20050;-61
2023/10/15 01:39:59;;;;;;;;;;;5.00;99.90;;;;;;5012586;28;20058;-59
2023/10/15 01:45:13;;;;;;;5.10;0.93;;;5.00;99.90;;;;;;5001931;28;20510;-59
2023/10/15 01:50:23;;;;;;;3.72;0.77;;;5.00;99.90;;;;;;5012646;28;20045;-58
2023/10/15 01:53:01;;;;;;;8.35;0.88;;;5.00;99.90;;;;;;5012152;28;20083;-57
2023/10/15 01:55:30;;;;;;;11.13;0.80;;;5.00;99.90;;;;;;5004899;28;20049;-57
2023/10/15 01:58:02;;;;;;;11.68;0.85;;;5.00;99.90;;;;;;4994496;28;21291;-58
2023/10/15 02:03:10;;;;;;;9.73;0.95;;;5.00;99.90;;;;;;5006780;28;20426;-58
2023/10/15 02:05:44;;;;;;;11.45;0.82;;;5.00;99.90;;;;;;5009154;28;20538;-61
2023/10/15 02:08:23;;;;;;;5.88;0.75;;;4.90;99.90;;;;;;4996718;28;20053;-60
2023/10/15 02:10:52;;;;;;;10.20;1.05;;;4.90;99.90;;;;;;4993875;28;20576;-59
2023/10/15 02:13:26;;;;;;;3.45;0.70;;;4.90;99.90;;;;;;4993445;28;20050;-60
2023/10/15 02:15:55;;;;;;;;;;;5.00;99.90;;;;;;5006369;28;20580;-60
2023/10/15 02:18:29;;;;;;;3.30;0.52;;;4.90;99.90;;;;;;5013505;28;20312;-60
2023/10/15 02:23:25;;;;;;;15.88;2.65;;;5.00;99.90;;;;;;4992605;28;20057;-59
2023/10/15 02:26:00;;;;;;;9.18;0.73;;;5.00;99.90;;;;;;5007587;28;20057;-60
2023/10/15 02:28:35;;;;;;;8.15;1.27;;;5.00;99.90;;;;;;5005633;28;20042;-60
2023/10/15 02:31:14;;;;;;;6.15;1.00;;;4.90;99.90;;;;;;4993488;28;20054;-60
2023/10/15 02:33:42;;;;;;;9.02;1.20;;;4.90;99.90;;;;;;4996139;28;20050;-60
2023/10/15 02:36:15;;;;;;;8.25;1.23;;;4.90;99.90;;;;;;5009239;28;20046;-60
2023/10/15 02:38:53;;;;;;;4.30;1.00;;;4.90;99.90;;;;;;5011958;28;20045;-60
2023/10/15 02:41:41;;;;;;;10.68;1.08;;;4.90;99.90;;;;;;5013011;28;20072;-59
2023/10/15 02:44:16;;;;;;;4.55;1.65;;;4.90;99.90;;;;;;4997407;28;20390;-59
2023/10/15 02:46:47;;;;;;;12.57;1.70;;;4.90;99.90;;;;;;5006333;28;20056;-61
2023/10/15 02:49:16;;;;;;;5.22;1.13;;;5.00;99.90;;;;;;5012758;28;20045;-60
2023/10/15 02:51:45;;;;;;;4.78;0.90;;;5.00;99.90;;;;;;4993503;28;20087;-61
2023/10/15 02:54:27;;;;;;;;;;;5.00;99.90;;;;;;5012538;28;20046;-61
2023/10/15 02:56:59;;;;;;;11.60;1.38;;;5.00;99.90;;;;;;4995377;28;19921;-62
2023/10/15 02:59:29;;;;;;;4.60;1.10;;;5.00;99.90;;;;;;4991559;28;20046;-59
2023/10/15 03:02:06;;;;;;;4.82;1.30;;;4.90;99.90;;;;;;4997634;28;20034;-62
2023/10/15 03:04:37;;;;;;;8.65;1.50;;;4.90;99.90;;;;;;5011199;28;20049;-61
2023/10/15 03:07:19;;;;;;;8.05;1.48;;;4.80;99.90;;;;;;5011488;28;20038;-61
2023/10/15 03:09:56;;;;;;;12.50;1.60;;;4.70;99.90;;;;;;5010832;28;20394;-58
2023/10/15 03:12:25;;;;;;;5.60;1.33;;;4.70;99.90;;;;;;5010817;28;20375;-61
2023/10/15 03:14:54;;;;;;;10.80;3.83;;;4.60;99.90;;;;;;4993650;28;20046;-59
2023/10/15 03:17:24;;;;;;;6.57;1.33;;;4.60;99.90;;;;;;5011356;28;20042;-62
2023/10/15 03:19:56;;;;;;;7.50;1.27;;;4.50;99.90;;;;;;4998353;28;20057;-59
2023/10/15 03:22:24;;;;;;;4.82;1.17;;;4.50;99.90;;;;;;4999356;28;20108;-60
2023/10/15 03:24:56;;;;;;;9.38;1.80;;;4.50;99.90;;;;;;5012077;28;20478;-59
2023/10/15 03:27:28;;;;;;;14.75;4.13;;;4.40;99.90;;;;;;5012326;28;20049;-59
2023/10/15 03:29:56;;;;;;;9.20;2.25;;;4.40;99.90;;;;;;5011902;28;20049;-59
2023/10/15 03:32:31;;;;;;;4.57;1.70;;;4.40;99.90;;;;;;5012125;28;20050;-57
2023/10/15 03:35:04;;;;;;;10.48;2.08;;;4.30;99.90;;;;;;5011782;28;20049;-59
2023/10/15 03:37:45;;;;;;;7.80;1.30;;;4.30;99.90;;;;;;4993907;28;20048;-57
2023/10/15 03:40:31;;;;;;;4.70;1.38;;;4.30;99.90;;;;;;5011453;28;20121;-61
2023/10/15 03:43:20;;;;;;;9.18;1.80;;;4.30;99.90;;;;;;5011640;28;20065;-59
2023/10/15 03:45:51;;;;;;;;;;;4.30;99.90;;;;;;5012015;28;20042;-58
2023/10/15 03:48:22;;;;;;;3.75;1.52;;;4.30;99.90;;;;;;5011671;28;19922;-59
2023/10/15 03:50:56;;;;;;;9.52;1.40;;;4.30;99.90;;;;;;5011445;28;20046;-58
2023/10/15 03:53:30;;;;;;;5.85;1.40;;;4.30;99.90;;;;;;5011917;28;20064;-58
2023/10/15 03:56:00;;;;;;;5.63;1.40;;;4.30;99.90;;;;;;5011362;28;20057;-58
2023/10/15 03:58:31;;;;;;;7.13;1.40;;;4.30;99.90;;;;;;5011562;28;20057;-59
2023/10/15 04:03:47;;;;;;;10.43;1.30;;;4.30;99.90;;;;;;5011340;28;20050;-60
2023/10/15 04:06:17;;;;;;;4.90;1.40;;;4.30;99.90;;;;;;5011579;28;20058;-60
2023/10/15 04:09:09;;;;;;;3.72;1.08;;;4.30;99.90;;;;;;5010483;28;20042;-61
2023/10/15 04:11:46;;;;;;;5.00;1.00;;;4.40;99.90;;;;;;5011424;28;20049;-61
2023/10/15 04:14:26;;;;;;;10.45;1.30;;;4.40;99.90;;;;;;5011520;28;20038;-61
2023/10/15 04:16:54;;;;;;;;;;;4.30;99.90;;;;;;5011757;28;20053;-58
2023/10/15 04:19:26;;;;;;;13.30;1.27;;;4.30;99.90;;;;;;5011420;28;19929;-59
2023/10/15 04:22:00;;;;;;;7.22;0.98;;;4.20;99.90;;;;;;5011515;28;20057;-59
2023/10/15 04:24:36;;;;;;;13.98;1.83;;;4.10;99.90;;;;;;5010176;28;20042;-60
2023/10/15 04:27:15;;;;;;;7.10;0.70;;;4.00;99.90;;;;;;5011462;28;20050;-59
2023/10/15 04:30:09;;;;;;;6.00;0.80;;;4.00;99.90;;;;;;5011251;28;20045;-59
2023/10/15 04:35:18;;;;;;;7.65;1.85;;;3.80;99.90;;;;;;5011376;28;20049;-58
2023/10/15 04:37:52;;;;;;;9.23;1.08;;;3.70;99.90;;;;;;5011368;28;20516;-59
2023/10/15 04:40:23;;;;;;;7.45;0.70;;;3.70;99.90;;;;;;4998252;28;20391;-59
2023/10/15 04:42:51;;;;;;;4.90;0.60;;;3.60;99.90;;;;;;4991913;28;20050;-60
2023/10/15 04:45:35;;;;;;;11.23;0.90;;;3.60;99.90;;;;;;4991435;28;20050;-60
2023/10/15 04:48:12;;;;;;;5.22;0.90;;;3.50;99.90;;;;;;4998304;28;20064;-60
2023/10/15 04:50:43;;;;;;;6.70;0.65;;;3.50;99.90;;;;;;4995574;28;20047;-59
2023/10/15 04:53:13;;;;;;;4.53;1.20;;;3.40;99.90;;;;;;4990054;28;20054;-60
2023/10/15 04:55:44;;;;;;;22.00;1.23;;;3.40;99.90;;;;;;5000344;28;20057;-60
2023/10/15 04:58:13;;;;;;;5.40;0.77;;;3.30;99.90;;;;;;5011405;28;20041;-61
2023/10/15 05:00:57;;;;;;;2.78;0.73;;;3.30;99.90;;;;;;5005731;28;20057;-61
2023/10/15 05:03:28;;;;;;;5.15;0.88;;;3.20;99.90;;;;;;4991945;28;20053;-61
2023/10/15 05:06:04;;;;;;;1.98;0.60;;;3.20;99.90;;;;;;5002008;28;20053;-58
2023/10/15 05:08:35;;;;;;;10.32;0.98;;;3.20;99.90;;;;;;5007958;28;20037;-59
2023/10/15 05:11:05;;;;;;;2.58;0.50;;;3.10;99.90;;;;;;4998226;28;20049;-57
2023/10/15 05:13:33;;;;;;;7.68;0.70;;;3.10;99.90;;;;;;4998273;28;20286;-58
2023/10/15 05:16:02;;;;;;;4.13;0.73;;;3.10;99.90;;;;;;5008157;28;20050;-61
2023/10/15 05:18:36;;;;;;;5.07;0.63;;;3.00;99.90;;;;;;5003969;28;20041;-63
2023/10/15 05:21:33;;;;;;;6.03;0.75;;;3.00;99.90;;;;;;5002688;28;20050;-61
2023/10/15 05:24:02;;;;;;;3.30;0.63;;;2.90;99.90;;;;;;4999889;28;20042;-62
2023/10/15 05:26:30;;;;;;;5.60;0.93;;;2.90;99.90;;;;;;4989786;28;20051;-61
2023/10/15 05:28:59;;;;;;;3.88;0.57;;;2.90;99.90;;;;;;4997868;28;20057;-59
2023/10/15 05:31:27;;;;;;;3.88;0.75;;;2.80;99.90;;;;;;4988375;28;20050;-61
2023/10/15 05:33:55;;;;;;;10.18;0.90;;;2.80;99.90;;;;;;5006076;28;20046;-59
2023/10/15 05:36:23;;;;;;;6.80;0.95;;;2.70;99.90;;;;;;4998729;28;20053;-58
2023/10/15 05:38:53;;;;;;;7.60;0.80;;;2.70;99.90;;;;;;5001784;28;20064;-62
2023/10/15 05:41:23;;;;;;;7.32;0.75;;;2.70;99.90;;;;;;4993180;28;20050;-61
2023/10/15 05:43:53;;;;;;;11.45;1.20;;;2.60;99.90;;;;;;5010515;28;20049;-60
2023/10/15 05:46:21;;;;;;;;;;;2.60;99.90;;;;;;5002744;28;20058;-61
2023/10/15 05:48:49;;;;;;;6.03;0.85;;;2.60;99.90;;;;;;4991172;28;20293;-60
2023/10/15 05:51:17;;;;;;;6.97;0.90;;;2.50;99.90;;;;;;4990599;28;20549;-61
2023/10/15 05:53:44;;;;;;;7.65;0.88;;;2.50;99.90;;;;;;5003022;28;20492;-60
2023/10/15 05:56:13;;;;;;;11.93;2.15;;;2.40;99.90;;;;;;5008186;28;20049;-59
2023/10/15 05:58:41;;;;;;;4.25;1.02;;;2.40;99.90;;;;;;5000153;28;20114;-59
2023/10/15 06:01:12;;;;;;;8.10;0.90;;;2.30;99.90;;;;;;4990488;28;20046;-62
2023/10/15 06:03:40;;;;;;;5.55;0.98;;;2.30;99.90;;;;;;4997316;28;20061;-59
2023/10/15 06:06:11;;;;;;;6.55;1.52;;;2.30;99.90;;;;;;5006455;28;20057;-59
2023/10/15 06:08:41;;;;;;;2.78;0.63;;;2.20;99.90;;;;;;5010121;28;20070;-58
2023/10/15 06:11:13;;;;;;;7.28;1.00;;;2.20;99.90;;;;;;5007264;28;20050;-58
2023/10/15 06:13:40;;;;;;;8.95;1.10;;;2.20;99.90;;;;;;5002532;28;20478;-58
2023/10/15 06:16:08;;;;;;;8.52;1.63;;;2.20;99.90;;;;;;4993926;28;20050;-57
2023/10/15 06:18:41;;;;;;;6.43;0.90;;;2.10;99.90;;;;;;5009935;28;20052;-58
2023/10/15 06:21:11;;;;;;;12.68;0.90;;;2.10;99.90;;;;;;5004665;28;20414;-60
2023/10/15 06:23:39;;;;;;;6.25;0.85;;;2.10;99.90;;;;;;5010066;28;20060;-63
2023/10/15 06:26:19;;;;;;;2.92;0.65;;;2.10;99.90;;;;;;5007267;28;20049;-58
2023/10/15 06:28:47;;;;;;;5.45;1.30;;;2.10;99.90;;;;;;5007756;28;20046;-59
2023/10/15 06:31:16;;;;;;;6.38;0.90;;;2.00;99.90;;;;;;4995787;28;20498;-57
2023/10/15 06:33:44;;;;;;;9.93;0.73;;;2.00;99.90;;;;;;5002375;28;20061;-59
2023/10/15 06:36:14;;;;;;;8.40;1.00;;;2.00;99.90;;;;;;5001751;28;20043;-59
2023/10/15 06:38:42;;;;;;;;;;;1.90;99.90;;;;;;5002582;28;20058;-60
2023/10/15 06:41:11;;;;;;;8.40;1.27;;;1.90;99.90;;;;;;4991974;28;20297;-59
2023/10/15 06:43:48;;;;;;;8.20;2.42;;;1.90;99.90;;;;;;5006883;28;20054;-61
2023/10/15 06:46:21;;;;;;;8.60;0.90;;;1.90;99.90;;;;;;5009673;28;20042;-62
2023/10/15 06:48:51;;;;;;;7.28;0.75;;;1.80;99.90;;;;;;5009099;28;20532;-60
2023/10/15 06:51:19;;;;;;;;;;;1.80;99.90;;;;;;4998598;28;20050;-60
2023/10/15 06:53:50;;;;;;;4.70;0.60;;;1.80;99.90;;;;;;4997217;28;19928;-62
2023/10/15 06:56:38;;;;;;;3.95;1.08;;;1.80;99.90;;;;;;4995700;28;20053;-61
2023/10/15 06:59:06;;;;;;;4.32;0.55;;;1.80;99.90;;;;;;5001832;28;20056;-61
2023/10/15 07:01:39;;;;;;;9.18;1.90;;;1.80;99.90;;;;;;4989037;28;20057;-62
2023/10/15 07:04:15;;;;;;;7.13;1.52;;;1.80;99.90;;;;;;5000437;28;20045;-61
2023/10/15 07:06:52;;;;;;;4.60;0.90;;;1.80;99.90;;;;;;4994137;28;20050;-61
2023/10/15 07:09:32;;;;;;;6.85;1.60;;;1.80;99.90;;;;;;5003485;28;20073;-61
2023/10/15 07:12:00;;;;;;;7.85;1.15;;;1.90;99.90;;;;;;4987885;28;20077;-58
2023/10/15 07:14:40;;;;;;;11.50;1.48;;;1.90;99.90;;;;;;4998437;28;20489;-62
2023/10/15 07:17:09;;;;;;;6.60;1.15;;;1.90;99.90;;;;;;4997889;28;20050;-61
2023/10/15 07:19:37;;;;;;;10.68;1.35;;;2.00;99.90;;;;;;5002590;28;20045;-61
2023/10/15 07:22:05;;;;;;;7.93;0.93;;;2.10;99.90;;;;;;4997617;28;20507;-61
2023/10/15 07:24:33;;;;;;;7.28;1.55;;;2.10;99.90;;;;;;5007367;28;20057;-58
2023/10/15 07:27:01;;;;;;;6.07;1.05;;;2.20;99.90;;;;;;5008616;28;20212;-59
2023/10/15 07:29:29;;;;;;;6.50;1.45;;;2.20;99.90;;;;;;5006232;28;20046;-61
2023/10/15 07:31:57;;;;;;;6.50;1.50;;;2.30;99.90;;;;;;4989103;28;20046;-60
2023/10/15 07:34:26;;;;;;;7.35;1.73;;;2.30;99.90;;;;;;4999920;28;20057;-60
2023/10/15 07:37:00;;;;;;;4.28;1.33;;;2.40;99.90;;;;;;4995023;28;20042;-62
2023/10/15 07:39:28;;;;;;;9.82;1.40;;;2.40;99.90;;;;;;5000643;28;20496;-61
2023/10/15 07:41:56;;;;;;;18.05;2.95;;;2.50;99.90;;;;;;4998098;28;20054;-62
2023/10/15 07:44:23;;;;;;;5.57;1.70;;;2.50;99.90;;;;;;5004650;28;20310;-58
2023/10/15 07:46:52;;;;;;;8.80;1.95;;;2.60;99.90;;;;;;4996705;28;20057;-61
2023/10/15 07:49:20;;;;;;;8.05;2.45;;;2.70;99.90;;;;;;4995441;28;20042;-59
2023/10/15 07:51:57;;;;;;;5.78;2.50;;;2.70;99.90;;;;;;4998660;28;20047;-61
2023/10/15 07:54:28;;;;;;;10.10;2.05;;;2.80;99.90;;;;;;5004909;28;20049;-62
2023/10/15 07:56:58;;;;;;;7.20;2.15;;;2.90;99.90;;;;;;5007355;28;20056;-61
2023/10/15 07:59:26;;;;;;;7.63;2.40;;;3.00;99.90;;;;;;5001910;28;20045;-60
2023/10/15 08:01:59;;;;;;;12.70;2.33;;;3.10;99.90;;;;;;5002622;28;20133;-59
2023/10/15 08:04:28;;;;;;;8.30;2.78;;;3.10;99.90;;;;;;5003491;28;20504;-60
2023/10/15 08:07:02;;;;;;;5.28;1.40;;;3.20;99.90;;;;;;4997833;28;20057;-61
2023/10/15 08:09:31;;;;;;;6.80;1.45;;;3.30;99.90;;;;;;5004897;28;20065;-60
2023/10/15 08:12:08;;;;;;;9.82;1.15;;;3.30;99.90;;;;;;5005438;28;20054;-59
2023/10/15 08:14:36;;;;;;;6.18;1.20;;;3.40;99.90;;;;;;5006056;28;20061;-61
2023/10/15 08:17:43;;;;;;;4.93;1.02;;;3.50;99.90;;;;;;4989959;28;20068;-59
2023/10/15 08:20:12;;;;;;;5.55;1.17;;;3.50;99.90;;;;;;4972138;28;20050;-60
2023/10/15 08:22:45;;;;;;;13.38;1.33;;;3.60;99.90;;;;;;4992088;28;20063;-61
2023/10/15 08:25:21;;;;;;;3.50;0.88;;;3.70;99.90;;;;;;5006747;28;20053;-60
2023/10/15 08:27:49;;;;;;;7.53;0.98;;;3.70;99.90;;;;;;4993613;28;20061;-60
2023/10/15 08:30:25;;;;;;;6.75;0.80;;;3.80;99.90;;;;;;5009014;28;20049;-60
2023/10/15 08:32:59;;;;;;;6.20;0.85;;;3.90;99.90;;;;;;5011741;28;20053;-58
2023/10/15 08:35:30;;;;;;;4.57;0.73;;;4.00;99.90;;;;;;5010511;28;20049;-59
2023/10/15 08:38:10;;;;;;;7.55;1.38;;;4.10;99.90;;;;;;5009245;28;20046;-59
2023/10/15 08:40:39;;;;;;;3.70;0.68;;;4.10;99.90;;;;;;5011981;28;20054;-59
2023/10/15 08:43:13;;;;;;;;;;;4.20;99.90;;;;;;5011823;28;20046;-61
2023/10/15 08:45:45;;;;;;;6.47;0.80;;;4.30;99.90;;;;;;5010433;28;19922;-59
2023/10/15 08:48:15;;;;;;;7.30;1.02;;;4.40;99.90;;;;;;5009100;28;20050;-59
2023/10/15 08:50:47;;;;;;;7.80;0.63;;;4.50;99.90;;;;;;4991327;28;20053;-61
2023/10/15 08:53:18;;;;;;;3.50;0.50;;;4.60;99.90;;;;;;5006957;28;20415;-60
2023/10/15 08:55:46;;;;;;;12.43;0.80;;;4.70;99.90;;;;;;5006977;28;20042;-61
2023/10/15 08:58:18;;;;;;;6.90;1.05;;;4.80;99.90;;;;;;5000065;28;20803;-60
2023/10/15 09:00:50;;;;;;;8.63;1.30;;;4.80;99.90;;;;;;5010160;28;20053;-59
2023/10/15 09:03:19;;;;;;;3.88;0.60;;;4.90;99.90;;;;;;5006067;28;20061;-59
2023/10/15 09:05:52;;;;;;;3.97;0.80;;;5.00;99.90;;;;;;5008268;28;20050;-57
2023/10/15 09:08:21;;;;;;;4.65;0.57;;;5.10;99.90;;;;;;5009120;28;20303;-59
2023/10/15 09:10:52;;;;;;;14.18;2.40;;;5.10;99.90;;;;;;5006721;28;20474;-59
2023/10/15 09:13:22;;;;;;;2.63;0.90;;;5.30;99.90;;;;;;4999245;28;20065;-58
2023/10/15 09:15:52;;;;;;;9.45;1.00;;;5.40;99.90;;;;;;4999601;28;20414;-59
2023/10/15 09:18:24;;;;;;;12.73;1.40;;;5.50;99.90;;;;;;5002940;28;20057;-58
2023/10/15 09:20:52;;;;;;;6.57;0.95;;;5.50;99.90;;;;;;4991658;28;20118;-58
2023/10/15 09:23:24;;;;;;;6.93;0.70;;;5.60;99.90;;;;;;4992825;28;20050;-58
2023/10/15 09:25:55;;;;;;;4.25;1.02;;;5.70;99.90;;;;;;4998455;28;20053;-58
2023/10/15 09:28:27;;;;;;;3.72;0.80;;;5.80;99.90;;;;;;4997000;28;20053;-59
2023/10/15 09:31:03;;;;;;;3.67;1.10;;;5.90;99.90;;;;;;4991855;28;20490;-59
2023/10/15 09:33:32;;;;;;;5.00;0.63;;;6.00;99.90;;;;;;4994141;28;20046;-58
2023/10/15 09:36:04;;;;;;;6.95;0.73;;;6.10;99.90;;;;;;4993237;28;20049;-58
2023/10/15 09:38:33;;;;;;;4.45;0.68;;;6.30;99.90;;;;;;5001268;28;20430;-58
2023/10/15 09:41:02;;;;;;;8.23;2.33;;;6.40;99.90;;;;;;5010423;28;20532;-58
2023/10/15 09:43:35;;;;;;;10.57;2.00;;;6.50;99.90;;;;;;5008307;28;20208;-57
2023/10/15 09:46:06;;;;;;;6.50;0.98;;;6.60;99.90;;;;;;5000980;28;20034;-58
2023/10/15 09:48:36;;;;;;;5.75;0.70;;;6.70;99.90;;;;;;5001738;28;20494;-58
2023/10/15 09:51:07;;;;;;;8.07;0.95;;;6.80;99.90;;;;;;5002577;28;20061;-59
2023/10/15 09:53:35;;;;;;;;;;;6.90;99.90;;;;;;5001010;28;20053;-59
2023/10/15 09:56:07;;;;;;;4.57;0.68;;;7.00;99.90;;;;;;5010254;28;19921;-58
2023/10/15 09:58:38;;;;;;;2.67;1.58;;;7.10;99.90;;;;;;5009225;28;20046;-58
2023/10/15 10:01:25;;;;;;;5.18;1.25;;;7.20;99.90;;;;;;4995096;28;20046;-58
2023/10/15 10:04:18;;;;;;;7.35;0.90;;;7.30;99.90;;;;;;5009363;28;20050;-59
2023/10/15 10:07:05;;;;;;;1.65;1.10;;;7.40;99.90;;;;;;5010483;28;20394;-58
2023/10/15 10:09:57;;;;;;;7.07;1.85;;;7.50;99.90;;;;;;5008374;28;20057;-59
2023/10/15 10:12:49;;;;;;;4.63;0.88;;;7.60;99.90;;;;;;5004520;28;20057;-59
2023/10/15 10:15:47;;;;;;;5.00;1.20;;;7.60;99.90;;;;;;4993898;28;20064;-59
2023/10/15 10:18:15;;;;;;;4.85;0.80;;;7.70;99.90;;;;;;4997989;28;20072;-59
2023/10/15 10:20:48;;;;;;;2.40;0.68;;;7.90;99.90;;;;;;5007102;28;20053;-60
2023/10/15 10:23:17;;;;;;;4.53;0.73;;;7.90;99.90;;;;;;4991106;28;20510;-59
2023/10/15 10:25:48;;;;;;;10.23;0.87;;;8.00;99.90;;;;;;4993288;28;20046;-59
2023/10/15 10:28:19;;;;;;;4.22;0.82;;;8.20;99.90;;;;;;4988726;28;20312;-59
2023/10/15 10:30:56;;;;;;;5.15;0.57;;;8.20;99.90;;;;;;4990028;28;20038;-59
2023/10/15 10:33:45;;;;;;;2.42;0.52;;;8.30;99.90;;;;;;4989970;28;20053;-59
2023/10/15 10:36:22;;;;;;;13.32;1.52;;;8.40;99.90;;;;;;4999643;28;20049;-58
2023/10/15 10:39:10;;;;;;;3.45;0.63;;;8.50;99.90;;;;;;5003328;28;20399;-58
2023/10/15 10:41:43;;;;;;;1.48;0.75;;;8.50;99.90;;;;;;4997216;28;20372;-58
2023/10/15 10:44:23;;;;;;;4.80;0.60;;;8.60;99.90;;;;;;5000992;28;20049;-59
2023/10/15 10:46:58;;;;;;;3.47;0.65;;;8.70;99.90;;;;;;4991202;28;20676;-59
2023/10/15 10:49:31;;;;;;;2.80;0.60;;;8.80;99.90;;;;;;5003495;28;20246;-59
2023/10/15 10:52:15;;;;;;;7.65;0.50;;;8.90;99.90;;;;;;4989869;28;20051;-58
2023/10/15 10:54:45;;;;;;;2.92;0.50;;;9.00;99.90;;;;;;5001667;28;20643;-60
2023/10/15 10:57:18;;;;;;;6.88;0.80;;;9.00;99.90;;;;;;4992413;28;20041;-60
2023/10/15 10:59:47;;;;;;;3.90;1.05;;;9.10;99.90;;;;;;4991076;28;20050;-58
2023/10/15 11:02:16;;;;;;;4.03;0.57;;;9.30;99.90;;;;;;4992205;28;20042;-59
2023/10/15 11:04:45;;;;;;;1.35;0.47;;;9.40;99.90;;;;;;4993832;28;20050;-59
2023/10/15 11:07:14;;;;;;;3.05;0.70;;;9.60;99.90;;;;;;5000259;28;20046;-60
2023/10/15 11:09:42;;;;;;;3.93;0.90;;;9.70;99.90;;;;;;4999567;28;20054;-60
2023/10/15 11:12:14;;;;;;;3.33;0.50;;;9.80;99.90;;;;;;5001127;28;20490;-60
2023/10/15 11:14:42;;;;;;;3.60;0.70;;;10.00;99.90;;;;;;4989152;28;20505;-59
2023/10/15 11:17:10;;;;;;;2.80;0.50;;;10.20;99.90;;;;;;4989389;28;20046;-60
2023/10/15 11:19:39;;;;;;;2.03;0.70;;;10.40;99.90;;;;;;5007991;28;20508;-60
2023/10/15 11:22:08;;;;;;;2.53;0.60;;;10.60;99.90;;;;;;5001999;28;20058;-59
2023/10/15 11:24:36;;;;;;;1.98;0.52;;;10.90;99.90;;;;;;4995731;28;20050;-59
2023/10/15 11:27:07;;;;;;;4.05;0.35;;;11.10;99.90;;;;;;5002900;28;20041;-58
2023/10/15 11:29:35;;;;;;;1.52;0.32;;;11.40;99.90;;;;;;4992538;28;20546;-59
2023/10/15 11:32:06;;;;;;;1.73;0.40;;;11.60;99.90;;;;;;5002119;28;20038;-58
2023/10/15 11:34:35;;;;;;;4.38;0.50;;;11.80;99.90;;;;;;4993452;28;20046;-59
2023/10/15 11:37:03;;;;;;;2.67;0.50;;;12.00;99.90;;;;;;4990815;28;20054;-59
2023/10/15 11:39:38;;;;;;;3.25;0.63;;;12.20;99.90;;;;;;5006930;28;20050;-60
2023/10/15 11:42:07;;;;;;;4.97;0.40;;;12.40;99.90;;;;;;5006362;28;20034;-60
2023/10/15 11:44:42;;;;;;;3.67;0.70;;;12.60;99.90;;;;;;4997156;28;20502;-61
2023/10/15 11:47:16;;;;;;;4.68;0.95;;;13.00;99.90;;;;;;4988813;28;20057;-59
2023/10/15 11:49:45;;;;;;;2.95;0.50;;;13.20;99.90;;;;;;4989121;28;20055;-59
2023/10/15 11:52:22;;;;;;;1.67;0.57;;;13.50;99.90;;;;;;4990429;28;20050;-62
2023/10/15 11:54:50;;;;;;;4.20;0.50;;;13.80;99.90;;;;;;5008158;28;20050;-60
2023/10/15 11:57:26;;;;;;;2.22;0.63;;;14.00;99.90;;;;;;5006630;28;20046;-57
2023/10/15 11:59:56;;;;;;;2.20;0.50;;;14.20;99.90;;;;;;4999978;28;20038;-60
2023/10/15 12:02:27;;;;;;;2.42;0.60;;;14.50;99.90;;;;;;5007822;28;20053;-59
2023/10/15 12:05:00;;;;;;;1.20;0.80;;;14.70;99.90;;;;;;5002249;28;20057;-60
2023/10/15 12:07:29;;;;;;;6.47;0.82;;;15.00;99.90;;;;;;5008157;28;20046;-59
2023/10/15 12:09:57;;;;;;;2.47;0.60;;;15.30;99.90;;;;;;5007711;28;20064;-59
2023/10/15 12:12:27;;;;;;;2.80;0.98;;;15.70;99.90;;;;;;5008236;28;20042;-58
2023/10/15 12:14:55;;;;;;;2.92;0.82;;;16.00;99.90;;;;;;5006857;28;20061;-61
2023/10/15 12:17:23;;;;;;;3.42;0.90;;;16.30;99.90;;;;;;5006701;28;20528;-59
2023/10/15 12:19:51;;;;;;;2.42;0.63;;;16.60;99.90;;;;;;4993466;28;20065;-59
2023/10/15 12:22:39;;;;;;;2.92;0.43;;;16.90;99.90;;;;;;4989945;28;20049;-59
2023/10/15 12:25:07;;;;;;;2.03;0.60;;;17.20;99.90;;;;;;5008098;28;20049;-59
2023/10/15 12:27:36;;;;;;;3.65;0.88;;;17.30;99.90;;;;;;5004995;28;20045;-58
2023/10/15 12:30:07;;;;;;;1.80;0.70;;;17.50;99.90;;;;;;5008290;28;20046;-63
2023/10/15 12:32:34;;;;;;;2.60;0.77;;;17.80;99.90;;;;;;5008100;28;20063;-63
2023/10/15 12:35:16;;;;;;;1.13;0.45;;;18.10;99.90;;;;;;4991150;28;20050;-61
2023/10/15 12:37:44;;;;;;;2.05;0.55;;;18.30;99.90;;;;;;5005517;28;20046;-64
2023/10/15 12:40:21;;;;;;;2.45;0.68;;;18.30;99.90;;;;;;5006800;28;20539;-63
2023/10/15 12:42:51;;;;;;;0.82;0.50;;;18.40;99.90;;;;;;5007938;28;20054;-61
2023/10/15 12:45:20;;;;;;;2.20;0.43;;;18.40;99.90;;;;;;5007394;28;20062;-60
2023/10/15 12:47:48;;;;;;;1.50;0.45;;;18.50;99.90;;;;;;5008246;28;20050;-61
2023/10/15 12:50:16;;;;;;;0.98;0.38;;;18.60;99.70;;;;;;4991292;28;20061;-62
2023/10/15 12:52:45;;;;;;;2.17;0.40;;;18.80;99.30;;;;;;4990032;28;20052;-63
2023/10/15 12:55:19;;;;;;;1.00;0.40;;;19.00;99.90;;;;;;5007908;28;20057;-62
2023/10/15 12:57:47;;;;;;;1.30;0.52;;;19.20;99.30;;;;;;4985875;28;20406;-61
2023/10/15 13:00:21;;;;;;;4.00;0.77;;;19.30;96.80;;;;;;4987804;28;20061;-62
2023/10/15 13:02:51;;;;;;;4.18;0.65;;;19.30;97.40;;;;;;4989396;28;20057;-62
2023/10/15 13:05:21;;;;;;;1.20;0.40;;;19.20;97.80;;;;;;4992840;28;20042;-63
2023/10/15 13:07:52;;;;;;;2.60;0.60;;;19.20;96.20;;;;;;5007586;28;20053;-63
2023/10/15 13:10:20;;;;;;;2.47;0.50;;;19.20;95.90;;;;;;5007491;28;20421;-62
2023/10/15 13:12:50;;;;;;;1.95;0.50;;;19.10;96.70;;;;;;5005973;28;20397;-62
2023/10/15 13:15:18;;;;;;;1.58;0.60;;;19.30;96.40;;;;;;5011460;28;20052;-62
2023/10/15 13:17:46;;;;;;;1.88;0.50;;;19.50;95.60;;;;;;5011363;28;20041;-62
2023/10/15 13:20:17;;;;;;;3.50;0.50;;;19.40;95.00;;;;;;5009114;28;20049;-63
2023/10/15 13:22:45;;;;;;;2.42;0.47;;;19.50;96.70;;;;;;5009447;28;20053;-61
2023/10/15 13:25:14;;;;;;;1.23;0.52;;;19.70;97.60;;;;;;4990966;28;20713;-63
2023/10/15 13:27:45;;;;;;;1.35;0.60;;;20.00;96.20;;;;;;4994147;28;20057;-59
2023/10/15 13:30:15;;;;;;;4.97;0.70;;;20.10;96.00;;;;;;5009585;28;20046;-59
2023/10/15 13:32:46;;;;;;;4.38;0.70;;;20.10;96.00;;;;;;5010471;28;20046;-60
2023/10/15 13:35:15;;;;;;;2.95;0.50;;;20.10;94.90;;;;;;4996847;28;20046;-61
2023/10/15 13:37:43;;;;;;;2.88;0.80;;;20.10;95.00;;;;;;5008116;28;20057;-61
2023/10/15 13:40:12;;;;;;;1.88;0.35;;;20.00;94.40;;;;;;4991216;28;20050;-64